Tobias, Nebraska
Current Conditions -  °F | °C
As of 4:35 PM on Wednesday 22 Oct 2014 (Local Time) from KHJH Reporting Station
Thunderstorm Thunderstorm  
Wind Chill: 24°   Ceiling: 7000
Heat Index: 24°   Visibility: 10mi
Dew Point: 10°   Wind: 17mph
Humidity: 40%   Direction: 190°S
Pressure: 29.98"   Gusts: 25mph
Location:  40.42°N, 97.34°W
Report Text: KHJH 222135Z AUTO 19015G22KT 10SM VCTS OVC070 24/10 A2998 RMK AO2 LTG DSNT W T02400096
Loading
Personal Weather Stations






























Interactive Weather Map
Tropical Storm Tracking
New forecast layout! Learn more

10-Day Weather Forecast

Advertisements
Track Severe Weather on mobile